Pintada, New Mexico
Current Conditions -  °F | °C
As of 5:53 AM on Friday 28 Nov 2014 (Local Time) from KCQC Reporting Station
Clear Clear  
Wind Chill: -1°   Ceiling: Unl
Heat Index:   Visibility: 10mi
Dew Point: -8°   Wind: 18mph
Humidity: 43%   Direction: 310°NW
Pressure: 30.24"   Gusts: NA
Location:  34.8581°N, 104.704°W
Report Text: KCQC 281253Z AUTO 31016KT 10SM CLR 04/M08 A3024 RMK AO2 SLP215 T00391078
Loading
Personal Weather Stations






























Interactive Weather Map New forecast layout! Learn more

10-Day Weather Forecast

Advertisements
Track Severe Weather on mobile